Wetterdaten: Woche 05.08.24 - 11.08.24 (KW32)
Datum Zeit Temp. I. Temp. A. Feuchte I. Feuchte A. Luftdruck Regen Wind Richtung Sonnenschein Solar Taupunkt Windchill Windböen
05.08.2024 00:00 24,4 °C 17,3 °C 59 % 76 % 1015,0 hPa 0,0 l/m² 2,8 km/h (1 Bft) W-NW 0,00 h 0 W/m² 13,0 °C 17,3 °C 7,1 km/h (2 Bft)
05.08.2024 01:00 24,4 °C 16,9 °C 59 % 77 % 1015,1 hPa 0,0 l/m² 3,7 km/h (1 Bft) W-NW 0,00 h 0 W/m² 12,8 °C 16,9 °C 7,4 km/h (2 Bft)
05.08.2024 02:00 24,4 °C 15,9 °C 59 % 81 % 1015,2 hPa 0,0 l/m² 0,6 km/h (0 Bft) W 0,00 h 0 W/m² 12,7 °C 15,9 °C 2,1 km/h (1 Bft)
05.08.2024 03:00 24,3 °C 15,3 °C 59 % 85 % 1015,3 hPa 0,0 l/m² 0,2 km/h (0 Bft) W 0,00 h 0 W/m² 12,7 °C 15,3 °C 1,5 km/h (1 Bft)
05.08.2024 04:00 24,3 °C 14,2 °C 59 % 86 % 1015,3 hPa 0,0 l/m² 2,5 km/h (1 Bft) NW 0,00 h 0 W/m² 11,8 °C 14,2 °C 4,5 km/h (1 Bft)
05.08.2024 05:00 24,3 °C 14,3 °C 59 % 87 % 1015,3 hPa 0,0 l/m² 0,6 km/h (0 Bft) W-NW 0,00 h 0 W/m² 12,2 °C 14,3 °C 2,0 km/h (1 Bft)
05.08.2024 06:00 24,2 °C 15,1 °C 58 % 85 % 1015,4 hPa 0,0 l/m² 0,9 km/h (0 Bft) W-NW 0,00 h 24 W/m² 12,5 °C 15,1 °C 2,4 km/h (1 Bft)
05.08.2024 07:00 23,9 °C 15,8 °C 55 % 84 % 1015,7 hPa 0,0 l/m² 1,5 km/h (1 Bft) W-NW 0,87 h 84 W/m² 13,0 °C 15,8 °C 2,1 km/h (1 Bft)
05.08.2024 08:00 23,9 °C 16,9 °C 57 % 78 % 1015,9 hPa 0,0 l/m² 3,6 km/h (1 Bft) W-SW 1,00 h 181 W/m² 13,1 °C 16,9 °C 5,7 km/h (2 Bft)
05.08.2024 09:00 23,9 °C 18,2 °C 57 % 72 % 1016,0 hPa 0,0 l/m² 4,0 km/h (1 Bft) W-SW 1,00 h 328 W/m² 13,0 °C 18,2 °C 6,7 km/h (2 Bft)
05.08.2024 10:00 23,9 °C 19,4 °C 58 % 67 % 1016,3 hPa 0,0 l/m² 3,1 km/h (1 Bft) W-NW 1,00 h 369 W/m² 13,0 °C 19,4 °C 5,9 km/h (2 Bft)
05.08.2024 11:00 23,9 °C 20,1 °C 58 % 65 % 1016,4 hPa 0,0 l/m² 3,0 km/h (1 Bft) W 1,00 h 402 W/m² 13,3 °C 20,1 °C 6,6 km/h (2 Bft)
05.08.2024 12:00 23,9 °C 20,5 °C 58 % 65 % 1016,1 hPa 0,0 l/m² 5,0 km/h (1 Bft) W-SW 1,00 h 449 W/m² 13,7 °C 20,3 °C 8,0 km/h (2 Bft)
05.08.2024 13:00 24,0 °C 21,5 °C 59 % 62 % 1015,7 hPa 0,0 l/m² 2,4 km/h (1 Bft) NW 1,00 h 546 W/m² 13,7 °C 21,5 °C 4,7 km/h (1 Bft)
05.08.2024 14:00 24,0 °C 21,7 °C 59 % 60 % 1015,6 hPa 0,0 l/m² 4,9 km/h (1 Bft) S-SW 1,00 h 399 W/m² 13,5 °C 21,6 °C 7,5 km/h (2 Bft)
05.08.2024 15:00 24,1 °C 22,4 °C 59 % 59 % 1015,5 hPa 0,0 l/m² 6,6 km/h (2 Bft) S-SW 1,00 h 442 W/m² 13,9 °C 22,1 °C 9,6 km/h (2 Bft)
05.08.2024 16:00 24,2 °C 23,0 °C 60 % 58 % 1015,4 hPa 0,0 l/m² 4,2 km/h (1 Bft) SW 1,00 h 547 W/m² 14,2 °C 22,9 °C 7,1 km/h (2 Bft)
05.08.2024 17:00 24,1 °C 22,4 °C 58 % 58 % 1015,3 hPa 0,0 l/m² 2,6 km/h (1 Bft) S-SO 1,00 h 216 W/m² 13,6 °C 22,4 °C 4,8 km/h (1 Bft)
05.08.2024 18:00 24,1 °C 21,8 °C 55 % 60 % 1015,1 hPa 0,0 l/m² 2,0 km/h (1 Bft) O 0,95 h 90 W/m² 13,7 °C 21,8 °C 3,2 km/h (1 Bft)
05.08.2024 19:00 24,1 °C 21,0 °C 56 % 67 % 1015,2 hPa 0,0 l/m² 0,1 km/h (0 Bft) O 0,00 h 30 W/m² 14,6 °C 21,0 °C 0,3 km/h (0 Bft)
05.08.2024 20:00 24,2 °C 19,5 °C 58 % 76 % 1015,4 hPa 0,0 l/m² 0,0 km/h (0 Bft) O 0,00 h 15 W/m² 15,1 °C 19,5 °C 0,0 km/h (0 Bft)
05.08.2024 21:00 24,0 °C 17,2 °C 56 % 84 % 1015,5 hPa 0,0 l/m² 0,0 km/h (0 Bft) O 0,00 h 0 W/m² 14,5 °C 17,2 °C 0,0 km/h (0 Bft)
05.08.2024 22:00 23,9 °C 15,7 °C 56 % 89 % 1015,5 hPa 0,0 l/m² 0,2 km/h (0 Bft) O 0,00 h 0 W/m² 13,9 °C 15,7 °C 0,6 km/h (0 Bft)
05.08.2024 23:00 23,8 °C 14,9 °C 57 % 91 % 1015,5 hPa 0,0 l/m² 0,1 km/h (0 Bft) O 0,00 h 0 W/m² 13,5 °C 14,9 °C 0,2 km/h (0 Bft)
06.08.2024 00:00 23,7 °C 14,1 °C 57 % 92 % 1015,6 hPa 0,0 l/m² 0,0 km/h (0 Bft) O 0,00 h 0 W/m² 12,9 °C 14,1 °C 0,1 km/h (0 Bft)
06.08.2024 01:00 23,7 °C 13,6 °C 57 % 93 % 1015,4 hPa 0,0 l/m² 0,0 km/h (0 Bft) O 0,00 h 0 W/m² 12,5 °C 13,6 °C 0,1 km/h (0 Bft)
06.08.2024 02:00 23,7 °C 13,1 °C 56 % 93 % 1015,2 hPa 0,0 l/m² 0,0 km/h (0 Bft) O 0,00 h 0 W/m² 11,9 °C 13,1 °C 0,1 km/h (0 Bft)
06.08.2024 03:00 23,6 °C 12,6 °C 56 % 94 % 1015,0 hPa 0,0 l/m² 0,0 km/h (0 Bft) O 0,00 h 0 W/m² 11,6 °C 12,6 °C 0,0 km/h (0 Bft)
06.08.2024 04:00 23,5 °C 12,3 °C 56 % 94 % 1014,7 hPa 0,0 l/m² 0,0 km/h (0 Bft) O 0,00 h 0 W/m² 11,3 °C 12,3 °C 0,2 km/h (0 Bft)
06.08.2024 05:00 23,5 °C 12,1 °C 56 % 94 % 1014,7 hPa 0,0 l/m² 0,0 km/h (0 Bft) O 0,00 h 7 W/m² 11,2 °C 12,1 °C 0,0 km/h (0 Bft)
06.08.2024 06:00 23,3 °C 12,4 °C 55 % 94 % 1014,6 hPa 0,0 l/m² 0,0 km/h (0 Bft) O 0,00 h 29 W/m² 11,6 °C 12,4 °C 0,0 km/h (0 Bft)
06.08.2024 07:00 23,2 °C 14,3 °C 55 % 95 % 1014,5 hPa 0,0 l/m² 0,6 km/h (0 Bft) O 0,83 h 148 W/m² 13,4 °C 14,3 °C 1,3 km/h (1 Bft)
06.08.2024 08:00 23,2 °C 17,5 °C 56 % 87 % 1014,3 hPa 0,0 l/m² 3,3 km/h (1 Bft) O 1,02 h 293 W/m² 15,3 °C 17,5 °C 5,8 km/h (2 Bft)
06.08.2024 09:00 23,2 °C 21,1 °C 56 % 71 % 1014,1 hPa 0,0 l/m² 4,9 km/h (1 Bft) O 1,00 h 528 W/m² 15,6 °C 21,0 °C 7,7 km/h (2 Bft)
06.08.2024 10:00 23,3 °C 23,2 °C 56 % 64 % 1014,0 hPa 0,0 l/m² 6,1 km/h (2 Bft) O-NO 1,00 h 649 W/m² 15,9 °C 23,1 °C 9,7 km/h (2 Bft)
06.08.2024 11:00 23,4 °C 24,6 °C 57 % 55 % 1013,9 hPa 0,0 l/m² 8,3 km/h (2 Bft) O-SO 1,00 h 752 W/m² 14,9 °C 24,0 °C 12,2 km/h (2 Bft)
06.08.2024 12:00 23,4 °C 25,3 °C 57 % 52 % 1013,6 hPa 0,0 l/m² 7,0 km/h (2 Bft) SO 1,00 h 811 W/m² 14,6 °C 24,9 °C 10,2 km/h (2 Bft)
06.08.2024 13:00 23,5 °C 26,2 °C 57 % 53 % 1013,3 hPa 0,0 l/m² 6,4 km/h (2 Bft) O 1,00 h 823 W/m² 15,9 °C 26,0 °C 9,9 km/h (2 Bft)
06.08.2024 14:00 23,6 °C 26,6 °C 57 % 51 % 1012,8 hPa 0,0 l/m² 6,1 km/h (2 Bft) SO 1,00 h 787 W/m² 15,7 °C 26,4 °C 9,4 km/h (2 Bft)
06.08.2024 15:00 23,7 °C 27,3 °C 57 % 50 % 1012,4 hPa 0,0 l/m² 4,3 km/h (1 Bft) O-SO 1,00 h 708 W/m² 15,9 °C 27,2 °C 7,6 km/h (2 Bft)
06.08.2024 16:00 23,9 °C 27,5 °C 57 % 49 % 1012,1 hPa 0,0 l/m² 4,2 km/h (1 Bft) O-SO 1,00 h 581 W/m² 15,7 °C 27,4 °C 7,1 km/h (2 Bft)
06.08.2024 17:00 23,9 °C 27,4 °C 56 % 49 % 1011,6 hPa 0,0 l/m² 3,0 km/h (1 Bft) S-SO 1,00 h 430 W/m² 15,6 °C 27,3 °C 4,8 km/h (1 Bft)
06.08.2024 18:00 23,9 °C 26,9 °C 57 % 51 % 1011,2 hPa 0,0 l/m² 3,8 km/h (1 Bft) O-NO 1,00 h 203 W/m² 15,8 °C 26,9 °C 6,0 km/h (2 Bft)
06.08.2024 19:00 23,9 °C 25,6 °C 58 % 55 % 1011,1 hPa 0,0 l/m² 5,6 km/h (2 Bft) O-NO 0,08 h 38 W/m² 16,0 °C 25,6 °C 8,3 km/h (2 Bft)
06.08.2024 20:00 24,0 °C 23,1 °C 59 % 64 % 1011,2 hPa 0,0 l/m² 3,8 km/h (1 Bft) O-NO 0,00 h 14 W/m² 15,8 °C 23,1 °C 5,5 km/h (2 Bft)
06.08.2024 21:00 23,9 °C 20,6 °C 58 % 72 % 1011,5 hPa 0,0 l/m² 2,8 km/h (1 Bft) O-NO 0,00 h 0 W/m² 15,4 °C 20,6 °C 4,1 km/h (1 Bft)
06.08.2024 22:00 23,8 °C 19,5 °C 57 % 75 % 1011,6 hPa 0,0 l/m² 2,3 km/h (1 Bft) O-NO 0,00 h 0 W/m² 15,0 °C 19,5 °C 3,6 km/h (1 Bft)
06.08.2024 23:00 23,8 °C 17,9 °C 58 % 82 % 1011,7 hPa 0,0 l/m² 0,1 km/h (0 Bft) O-NO 0,00 h 0 W/m² 14,8 °C 17,9 °C 0,3 km/h (0 Bft)
07.08.2024 00:00 23,7 °C 16,6 °C 58 % 89 % 1011,7 hPa 0,0 l/m² 0,0 km/h (0 Bft) O-NO 0,00 h 0 W/m² 14,8 °C 16,6 °C 0,0 km/h (0 Bft)
07.08.2024 01:00 23,6 °C 15,8 °C 58 % 91 % 1011,5 hPa 0,0 l/m² 0,0 km/h (0 Bft) O-NO 0,00 h 0 W/m² 14,3 °C 15,8 °C 0,0 km/h (0 Bft)
07.08.2024 02:00 23,6 °C 15,4 °C 58 % 92 % 1011,3 hPa 0,0 l/m² 0,0 km/h (0 Bft) O-NO 0,00 h 0 W/m² 14,0 °C 15,4 °C 0,0 km/h (0 Bft)
07.08.2024 03:00 23,5 °C 15,0 °C 58 % 93 % 1011,0 hPa 0,0 l/m² 0,0 km/h (0 Bft) N 0,00 h 0 W/m² 13,8 °C 15,0 °C 0,0 km/h (0 Bft)
07.08.2024 04:00 23,4 °C 14,6 °C 58 % 94 % 1010,8 hPa 0,0 l/m² 0,0 km/h (0 Bft) N 0,00 h 0 W/m² 13,6 °C 14,6 °C 0,1 km/h (0 Bft)
07.08.2024 05:00 23,4 °C 14,1 °C 58 % 94 % 1010,6 hPa 0,0 l/m² 0,1 km/h (0 Bft) N 0,00 h 6 W/m² 13,2 °C 14,1 °C 0,3 km/h (0 Bft)
07.08.2024 06:00 23,3 °C 14,1 °C 57 % 95 % 1010,6 hPa 0,0 l/m² 0,0 km/h (0 Bft) N 0,00 h 25 W/m² 13,3 °C 14,1 °C 0,0 km/h (0 Bft)
07.08.2024 07:00 23,2 °C 15,8 °C 57 % 93 % 1010,6 hPa 0,0 l/m² 0,0 km/h (0 Bft) N 0,82 h 142 W/m² 14,7 °C 15,8 °C 0,0 km/h (0 Bft)
07.08.2024 08:00 23,2 °C 19,2 °C 57 % 85 % 1010,5 hPa 0,0 l/m² 0,5 km/h (0 Bft) N 1,00 h 289 W/m² 16,6 °C 19,2 °C 1,2 km/h (1 Bft)
07.08.2024 09:00 23,3 °C 22,7 °C 57 % 72 % 1010,4 hPa 0,0 l/m² 2,7 km/h (1 Bft) S-SO 1,00 h 496 W/m² 17,2 °C 22,7 °C 4,8 km/h (1 Bft)
07.08.2024 10:00 23,4 °C 25,3 °C 57 % 64 % 1010,4 hPa 0,0 l/m² 2,7 km/h (1 Bft) SO 1,00 h 642 W/m² 17,8 °C 25,3 °C 5,0 km/h (1 Bft)
07.08.2024 11:00 23,4 °C 27,6 °C 58 % 56 % 1010,3 hPa 0,0 l/m² 4,7 km/h (1 Bft) S-SO 1,00 h 741 W/m² 18,1 °C 27,5 °C 7,6 km/h (2 Bft)
07.08.2024 12:00 23,4 °C 29,1 °C 58 % 53 % 1010,2 hPa 0,0 l/m² 8,0 km/h (2 Bft) SW 1,00 h 732 W/m² 18,5 °C 28,8 °C 12,0 km/h (2 Bft)
07.08.2024 13:00 23,5 °C 29,3 °C 58 % 54 % 1010,2 hPa 0,0 l/m² 10,0 km/h (2 Bft) SW 1,00 h 635 W/m² 18,9 °C 28,9 °C 13,8 km/h (3 Bft)
07.08.2024 14:00 23,6 °C 30,2 °C 58 % 50 % 1010,0 hPa 0,0 l/m² 11,0 km/h (2 Bft) SW 1,00 h 709 W/m² 18,5 °C 29,9 °C 15,6 km/h (3 Bft)
07.08.2024 15:00 23,6 °C 29,9 °C 58 % 51 % 1009,8 hPa 0,0 l/m² 11,2 km/h (2 Bft) SW 1,00 h 461 W/m² 18,5 °C 29,4 °C 15,3 km/h (3 Bft)
07.08.2024 16:00 23,6 °C 29,3 °C 58 % 54 % 1009,6 hPa 0,0 l/m² 11,1 km/h (2 Bft) SW 1,00 h 305 W/m² 18,9 °C 28,9 °C 14,2 km/h (3 Bft)
07.08.2024 17:00 23,7 °C 27,9 °C 59 % 60 % 1009,5 hPa 0,0 l/m² 10,4 km/h (2 Bft) SW 1,00 h 142 W/m² 19,3 °C 27,4 °C 13,7 km/h (3 Bft)
07.08.2024 18:00 23,7 °C 26,9 °C 59 % 64 % 1009,6 hPa 0,0 l/m² 8,3 km/h (2 Bft) SW 1,00 h 128 W/m² 19,5 °C 26,6 °C 11,6 km/h (2 Bft)
07.08.2024 19:00 23,8 °C 26,5 °C 60 % 67 % 1010,0 hPa 0,0 l/m² 6,2 km/h (2 Bft) SW 0,72 h 70 W/m² 19,8 °C 26,4 °C 8,9 km/h (2 Bft)
07.08.2024 20:00 23,9 °C 25,0 °C 61 % 70 % 1010,3 hPa 0,0 l/m² 2,8 km/h (1 Bft) W-SW 0,00 h 13 W/m² 19,1 °C 25,0 °C 5,9 km/h (2 Bft)
07.08.2024 21:00 24,1 °C 23,2 °C 61 % 75 % 1011,0 hPa 0,0 l/m² 3,7 km/h (1 Bft) W 0,00 h 0 W/m² 18,6 °C 22,8 °C 7,7 km/h (2 Bft)
07.08.2024 22:00 24,0 °C 22,3 °C 61 % 80 % 1012,2 hPa 0,0 l/m² 4,0 km/h (1 Bft) W-NW 0,00 h 0 W/m² 18,7 °C 22,2 °C 9,7 km/h (2 Bft)
07.08.2024 23:00 23,9 °C 21,3 °C 61 % 84 % 1012,5 hPa 0,0 l/m² 4,4 km/h (1 Bft) W 0,00 h 0 W/m² 18,5 °C 21,2 °C 9,9 km/h (2 Bft)
08.08.2024 00:00 23,8 °C 20,8 °C 61 % 83 % 1012,8 hPa 0,0 l/m² 3,8 km/h (1 Bft) W 0,00 h 0 W/m² 17,9 °C 20,8 °C 9,6 km/h (2 Bft)
08.08.2024 01:00 23,8 °C 20,0 °C 62 % 85 % 1013,3 hPa 0,0 l/m² 1,5 km/h (1 Bft) W 0,00 h 0 W/m² 17,4 °C 20,0 °C 4,1 km/h (1 Bft)
08.08.2024 02:00 23,8 °C 19,1 °C 61 % 89 % 1013,5 hPa 0,0 l/m² 1,7 km/h (1 Bft) W 0,00 h 0 W/m² 17,3 °C 19,1 °C 4,3 km/h (1 Bft)
08.08.2024 03:00 23,8 °C 19,1 °C 61 % 89 % 1013,8 hPa 0,0 l/m² 2,0 km/h (1 Bft) W 0,00 h 0 W/m² 17,2 °C 19,1 °C 4,6 km/h (1 Bft)
08.08.2024 04:00 23,8 °C 18,3 °C 61 % 89 % 1013,9 hPa 0,0 l/m² 1,2 km/h (1 Bft) W-SW 0,00 h 0 W/m² 16,5 °C 18,3 °C 3,7 km/h (1 Bft)
08.08.2024 05:00 23,8 °C 17,4 °C 62 % 91 % 1014,2 hPa 0,0 l/m² 1,4 km/h (1 Bft) W 0,00 h 10 W/m² 15,8 °C 17,4 °C 3,4 km/h (1 Bft)
08.08.2024 06:00 23,7 °C 17,3 °C 61 % 89 % 1014,4 hPa 0,0 l/m² 0,9 km/h (0 Bft) W-SW 0,48 h 51 W/m² 15,5 °C 17,3 °C 2,2 km/h (1 Bft)
08.08.2024 07:00 23,7 °C 17,9 °C 60 % 87 % 1014,6 hPa 0,0 l/m² 1,2 km/h (1 Bft) W 0,97 h 77 W/m² 15,6 °C 17,9 °C 3,1 km/h (1 Bft)
08.08.2024 08:00 23,7 °C 19,1 °C 60 % 81 % 1015,2 hPa 0,0 l/m² 2,4 km/h (1 Bft) W-NW 1,00 h 169 W/m² 15,7 °C 19,1 °C 5,2 km/h (1 Bft)
08.08.2024 09:00 23,7 °C 19,7 °C 60 % 76 % 1015,6 hPa 0,0 l/m² 2,4 km/h (1 Bft) N-NW 1,00 h 173 W/m² 15,4 °C 19,7 °C 4,4 km/h (1 Bft)
08.08.2024 10:00 23,6 °C 20,2 °C 60 % 74 % 1015,9 hPa 0,0 l/m² 2,0 km/h (1 Bft) N-NW 1,00 h 197 W/m² 15,5 °C 20,2 °C 4,1 km/h (1 Bft)
08.08.2024 11:00 23,6 °C 20,8 °C 61 % 73 % 1016,2 hPa 0,0 l/m² 3,6 km/h (1 Bft) N-NW 1,00 h 318 W/m² 15,8 °C 20,8 °C 6,7 km/h (2 Bft)
08.08.2024 12:00 23,6 °C 22,0 °C 61 % 68 % 1016,2 hPa 0,0 l/m² 2,8 km/h (1 Bft) W 1,00 h 549 W/m² 15,7 °C 22,0 °C 5,1 km/h (1 Bft)
08.08.2024 13:00 23,6 °C 23,4 °C 61 % 58 % 1016,2 hPa 0,0 l/m² 3,3 km/h (1 Bft) SO 1,00 h 774 W/m² 14,5 °C 23,4 °C 5,9 km/h (2 Bft)
08.08.2024 14:00 23,6 °C 24,0 °C 61 % 55 % 1015,7 hPa 0,0 l/m² 4,2 km/h (1 Bft) N-NW 1,00 h 583 W/m² 14,3 °C 23,9 °C 7,4 km/h (2 Bft)
08.08.2024 15:00 23,7 °C 24,1 °C 61 % 55 % 1015,6 hPa 0,0 l/m² 4,0 km/h (1 Bft) N-NW 1,00 h 404 W/m² 14,6 °C 24,1 °C 7,1 km/h (2 Bft)
08.08.2024 16:00 23,7 °C 24,4 °C 59 % 55 % 1015,6 hPa 0,0 l/m² 3,6 km/h (1 Bft) W-SW 1,00 h 437 W/m² 14,7 °C 24,3 °C 6,3 km/h (2 Bft)
08.08.2024 17:00 23,8 °C 23,4 °C 59 % 58 % 1015,6 hPa 0,0 l/m² 1,9 km/h (1 Bft) W-NW 0,53 h 72 W/m² 14,7 °C 23,4 °C 3,5 km/h (1 Bft)
08.08.2024 18:00 23,8 °C 22,1 °C 59 % 67 % 1015,7 hPa 0,0 l/m² 3,7 km/h (1 Bft) N 0,25 h 34 W/m² 15,7 °C 22,1 °C 5,4 km/h (1 Bft)
08.08.2024 19:00 23,8 °C 21,3 °C 60 % 72 % 1016,1 hPa 0,0 l/m² 1,8 km/h (1 Bft) N-NW 0,32 h 39 W/m² 16,1 °C 21,3 °C 3,1 km/h (1 Bft)
08.08.2024 20:00 23,9 °C 20,7 °C 61 % 72 % 1016,3 hPa 0,0 l/m² 1,3 km/h (1 Bft) N-NW 0,00 h 20 W/m² 15,5 °C 20,7 °C 2,2 km/h (1 Bft)
08.08.2024 21:00 23,9 °C 17,8 °C 61 % 85 % 1016,6 hPa 0,0 l/m² 0,1 km/h (0 Bft) N-NW 0,00 h 0 W/m² 15,1 °C 17,8 °C 0,4 km/h (0 Bft)
08.08.2024 22:00 23,9 °C 16,3 °C 61 % 90 % 1016,9 hPa 0,0 l/m² 0,0 km/h (0 Bft) NW 0,00 h 0 W/m² 14,6 °C 16,3 °C 0,0 km/h (0 Bft)
08.08.2024 23:00 23,7 °C 15,4 °C 61 % 93 % 1017,0 hPa 0,0 l/m² 0,0 km/h (0 Bft) NW 0,00 h 0 W/m² 14,2 °C 15,4 °C 0,0 km/h (0 Bft)
09.08.2024 00:00 23,7 °C 14,8 °C 60 % 94 % 1017,2 hPa 0,0 l/m² 0,0 km/h (0 Bft) NW 0,00 h 0 W/m² 13,8 °C 14,8 °C 0,0 km/h (0 Bft)
09.08.2024 01:00 23,7 °C 14,3 °C 60 % 94 % 1017,0 hPa 0,0 l/m² 0,0 km/h (0 Bft) NW 0,00 h 0 W/m² 13,4 °C 14,3 °C 0,0 km/h (0 Bft)
09.08.2024 02:00 23,6 °C 13,9 °C 59 % 95 % 1016,4 hPa 0,0 l/m² 0,0 km/h (0 Bft) N 0,00 h 0 W/m² 13,0 °C 13,9 °C 0,0 km/h (0 Bft)
09.08.2024 03:00 23,6 °C 13,4 °C 59 % 95 % 1016,2 hPa 0,0 l/m² 0,0 km/h (0 Bft) N 0,00 h 0 W/m² 12,6 °C 13,4 °C 0,0 km/h (0 Bft)
09.08.2024 04:00 23,4 °C 13,2 °C 58 % 95 % 1016,2 hPa 0,0 l/m² 0,0 km/h (0 Bft) N 0,00 h 0 W/m² 12,4 °C 13,2 °C 0,0 km/h (0 Bft)
09.08.2024 05:00 23,4 °C 12,9 °C 58 % 95 % 1016,1 hPa 0,0 l/m² 0,0 km/h (0 Bft) O-NO 0,00 h 5 W/m² 12,1 °C 12,9 °C 0,0 km/h (0 Bft)
09.08.2024 06:00 23,3 °C 12,9 °C 56 % 95 % 1016,0 hPa 0,0 l/m² 0,0 km/h (0 Bft) O-NO 0,00 h 21 W/m² 12,1 °C 12,9 °C 0,0 km/h (0 Bft)
09.08.2024 07:00 22,8 °C 15,0 °C 56 % 95 % 1015,7 hPa 0,0 l/m² 0,0 km/h (0 Bft) O 0,87 h 142 W/m² 14,2 °C 15,0 °C 0,0 km/h (0 Bft)
09.08.2024 08:00 22,8 °C 18,0 °C 58 % 87 % 1015,8 hPa 0,0 l/m² 0,0 km/h (0 Bft) SO 1,00 h 213 W/m² 15,8 °C 18,0 °C 0,0 km/h (0 Bft)
09.08.2024 09:00 22,9 °C 20,4 °C 58 % 77 % 1015,7 hPa 0,0 l/m² 7,8 km/h (2 Bft) S-SW 0,98 h 320 W/m² 16,3 °C 19,3 °C 10,6 km/h (2 Bft)
09.08.2024 10:00 23,1 °C 22,1 °C 58 % 69 % 1015,6 hPa 0,0 l/m² 11,9 km/h (2 Bft) SW 1,02 h 242 W/m² 16,1 °C 20,6 °C 16,2 km/h (3 Bft)
09.08.2024 11:00 23,1 °C 22,5 °C 58 % 66 % 1015,5 hPa 0,0 l/m² 15,0 km/h (3 Bft) SW 0,98 h 201 W/m² 15,8 °C 20,3 °C 21,4 km/h (4 Bft)
09.08.2024 12:00 23,1 °C 22,9 °C 59 % 68 % 1015,3 hPa 0,0 l/m² 11,6 km/h (2 Bft) SW 1,00 h 224 W/m² 16,7 °C 21,5 °C 15,9 km/h (3 Bft)
09.08.2024 13:00 23,1 °C 25,0 °C 59 % 62 % 1014,9 hPa 0,0 l/m² 12,7 km/h (3 Bft) S-SW 1,00 h 306 W/m² 17,3 °C 23,7 °C 16,8 km/h (3 Bft)
09.08.2024 14:00 23,2 °C 26,2 °C 59 % 58 % 1014,5 hPa 0,0 l/m² 17,2 km/h (3 Bft) SW 1,00 h 309 W/m² 17,2 °C 24,5 °C 23,1 km/h (4 Bft)
09.08.2024 15:00 23,4 °C 26,6 °C 60 % 57 % 1014,1 hPa 0,0 l/m² 18,4 km/h (3 Bft) S-SW 1,02 h 330 W/m² 17,4 °C 24,8 °C 24,7 km/h (4 Bft)
09.08.2024 16:00 23,5 °C 27,0 °C 60 % 57 % 1013,8 hPa 0,0 l/m² 19,8 km/h (4 Bft) S-SW 0,98 h 314 W/m² 17,7 °C 25,3 °C 26,9 km/h (4 Bft)
09.08.2024 17:00 23,4 °C 26,0 °C 60 % 59 % 1013,9 hPa 0,0 l/m² 19,7 km/h (3 Bft) SW 1,02 h 122 W/m² 17,2 °C 24,0 °C 27,0 km/h (4 Bft)
09.08.2024 18:00 23,3 °C 25,6 °C 60 % 61 % 1013,9 hPa 0,0 l/m² 11,4 km/h (2 Bft) SW 0,98 h 80 W/m² 17,5 °C 24,6 °C 15,9 km/h (3 Bft)
09.08.2024 19:00 23,5 °C 24,7 °C 62 % 66 % 1014,3 hPa 0,0 l/m² 8,3 km/h (2 Bft) W-SW 0,07 h 17 W/m² 17,9 °C 24,2 °C 13,5 km/h (3 Bft)
09.08.2024 20:00 23,6 °C 22,8 °C 62 % 76 % 1014,9 hPa 0,0 l/m² 5,4 km/h (2 Bft) W 0,00 h 10 W/m² 18,3 °C 22,7 °C 11,2 km/h (2 Bft)
09.08.2024 21:00 23,6 °C 21,0 °C 62 % 86 % 1016,0 hPa 1,0 l/m² 6,5 km/h (2 Bft) W-SW 0,00 h 0 W/m² 18,5 °C 20,5 °C 11,4 km/h (2 Bft)
09.08.2024 22:00 23,6 °C 19,5 °C 62 % 93 % 1016,2 hPa 0,0 l/m² 0,8 km/h (0 Bft) W-SW 0,00 h 0 W/m² 18,3 °C 19,5 °C 2,0 km/h (1 Bft)
09.08.2024 23:00 23,6 °C 18,5 °C 62 % 93 % 1016,5 hPa 0,0 l/m² 0,5 km/h (0 Bft) W-SW 0,00 h 0 W/m² 17,4 °C 18,5 °C 1,2 km/h (1 Bft)
10.08.2024 00:00 23,4 °C 17,7 °C 62 % 94 % 1017,1 hPa 0,0 l/m² 1,2 km/h (1 Bft) SW 0,00 h 0 W/m² 16,7 °C 17,7 °C 2,0 km/h (1 Bft)
10.08.2024 01:00 23,3 °C 17,0 °C 62 % 95 % 1017,5 hPa 0,0 l/m² 0,7 km/h (0 Bft) S-SW 0,00 h 0 W/m² 16,2 °C 17,0 °C 1,1 km/h (1 Bft)
10.08.2024 02:00 23,3 °C 16,2 °C 62 % 95 % 1018,0 hPa 0,0 l/m² 0,2 km/h (0 Bft) S-SW 0,00 h 0 W/m² 15,4 °C 16,2 °C 0,5 km/h (0 Bft)
10.08.2024 03:00 23,2 °C 15,3 °C 62 % 95 % 1018,4 hPa 0,0 l/m² 0,0 km/h (0 Bft) S-SW 0,00 h 0 W/m² 14,5 °C 15,3 °C 0,0 km/h (0 Bft)
10.08.2024 04:00 23,2 °C 15,2 °C 61 % 95 % 1018,5 hPa 0,0 l/m² 0,0 km/h (0 Bft) S-SW 0,00 h 0 W/m² 14,4 °C 15,2 °C 0,0 km/h (0 Bft)
10.08.2024 05:00 23,2 °C 15,2 °C 61 % 96 % 1018,7 hPa 0,0 l/m² 0,0 km/h (0 Bft) S-SW 0,00 h 5 W/m² 14,5 °C 15,2 °C 0,0 km/h (0 Bft)
10.08.2024 06:00 23,2 °C 15,2 °C 61 % 96 % 1018,8 hPa 0,0 l/m² 0,0 km/h (0 Bft) SW 0,00 h 27 W/m² 14,5 °C 15,2 °C 0,0 km/h (0 Bft)
10.08.2024 07:00 23,1 °C 16,6 °C 61 % 96 % 1019,0 hPa 0,0 l/m² 0,2 km/h (0 Bft) SW 1,00 h 140 W/m² 16,0 °C 16,6 °C 0,7 km/h (0 Bft)
10.08.2024 08:00 23,1 °C 19,1 °C 61 % 94 % 1019,3 hPa 0,0 l/m² 1,3 km/h (1 Bft) S-SO 1,00 h 263 W/m² 18,0 °C 19,1 °C 2,2 km/h (1 Bft)
10.08.2024 09:00 23,3 °C 21,8 °C 64 % 84 % 1019,4 hPa 0,0 l/m² 3,7 km/h (1 Bft) S-SO 1,02 h 512 W/m² 18,9 °C 21,7 °C 6,2 km/h (2 Bft)
10.08.2024 10:00 23,3 °C 23,8 °C 64 % 72 % 1019,0 hPa 0,0 l/m² 11,8 km/h (2 Bft) S-SW 1,00 h 644 W/m² 18,4 °C 22,5 °C 16,5 km/h (3 Bft)
10.08.2024 11:00 23,3 °C 24,6 °C 63 % 64 % 1018,9 hPa 0,0 l/m² 15,1 km/h (3 Bft) SW 0,98 h 521 W/m² 17,4 °C 22,8 °C 21,3 km/h (4 Bft)
10.08.2024 12:00 23,3 °C 25,8 °C 63 % 62 % 1018,9 hPa 0,2 l/m² 14,9 km/h (3 Bft) W-SW 1,02 h 848 W/m² 17,8 °C 24,3 °C 21,6 km/h (4 Bft)
10.08.2024 13:00 23,3 °C 26,4 °C 62 % 56 % 1018,6 hPa 0,0 l/m² 16,1 km/h (3 Bft) W-SW 1,00 h 678 W/m² 16,8 °C 24,9 °C 23,5 km/h (4 Bft)
10.08.2024 14:00 23,3 °C 27,7 °C 62 % 50 % 1018,6 hPa 0,0 l/m² 17,4 km/h (3 Bft) SW 1,00 h 818 W/m² 16,3 °C 26,3 °C 23,7 km/h (4 Bft)
10.08.2024 15:00 23,3 °C 27,8 °C 62 % 47 % 1018,7 hPa 0,0 l/m² 18,6 km/h (3 Bft) W-SW 1,00 h 730 W/m² 15,4 °C 26,4 °C 26,7 km/h (4 Bft)
10.08.2024 16:00 23,4 °C 28,1 °C 62 % 45 % 1018,8 hPa 0,0 l/m² 13,9 km/h (3 Bft) W-SW 1,00 h 590 W/m² 14,9 °C 27,2 °C 21,2 km/h (4 Bft)
10.08.2024 17:00 23,4 °C 27,7 °C 62 % 44 % 1018,9 hPa 0,0 l/m² 13,3 km/h (3 Bft) W-SW 1,00 h 439 W/m² 14,4 °C 26,8 °C 20,1 km/h (4 Bft)
10.08.2024 18:00 23,5 °C 27,2 °C 62 % 46 % 1019,0 hPa 0,0 l/m² 10,4 km/h (2 Bft) W-SW 0,65 h 203 W/m² 14,4 °C 26,5 °C 17,8 km/h (3 Bft)
10.08.2024 19:00 23,5 °C 26,0 °C 61 % 48 % 1019,2 hPa 0,0 l/m² 7,6 km/h (2 Bft) W-SW 0,00 h 24 W/m² 14,1 °C 25,7 °C 13,3 km/h (3 Bft)
10.08.2024 20:00 23,5 °C 23,4 °C 61 % 58 % 1019,3 hPa 0,0 l/m² 1,7 km/h (1 Bft) W-NW 0,00 h 11 W/m² 14,5 °C 23,4 °C 3,9 km/h (1 Bft)
10.08.2024 21:00 23,6 °C 20,1 °C 62 % 73 % 1019,6 hPa 0,0 l/m² 0,8 km/h (0 Bft) NO 0,00 h 0 W/m² 15,0 °C 20,1 °C 1,7 km/h (1 Bft)
10.08.2024 22:00 23,6 °C 18,0 °C 60 % 82 % 1019,9 hPa 0,0 l/m² 0,3 km/h (0 Bft) O 0,00 h 0 W/m² 14,9 °C 18,0 °C 0,7 km/h (0 Bft)
10.08.2024 23:00 23,5 °C 17,7 °C 60 % 85 % 1020,2 hPa 0,0 l/m² 0,0 km/h (0 Bft) O 0,00 h 0 W/m² 15,1 °C 17,7 °C 0,1 km/h (0 Bft)
11.08.2024 00:00 23,4 °C 18,2 °C 60 % 84 % 1020,4 hPa 0,0 l/m² 0,1 km/h (0 Bft) O 0,00 h 0 W/m² 15,6 °C 18,2 °C 0,1 km/h (0 Bft)
11.08.2024 01:00 23,3 °C 18,2 °C 60 % 87 % 1020,5 hPa 0,0 l/m² 0,0 km/h (0 Bft) O 0,00 h 0 W/m² 15,9 °C 18,2 °C 0,0 km/h (0 Bft)
11.08.2024 02:00 23,3 °C 18,1 °C 61 % 88 % 1020,4 hPa 0,0 l/m² 0,0 km/h (0 Bft) O 0,00 h 0 W/m² 16,1 °C 18,1 °C 0,2 km/h (0 Bft)
11.08.2024 03:00 23,3 °C 17,9 °C 61 % 89 % 1020,3 hPa 0,0 l/m² 0,2 km/h (0 Bft) O 0,00 h 0 W/m² 16,0 °C 17,9 °C 0,6 km/h (0 Bft)
11.08.2024 04:00 23,2 °C 17,9 °C 61 % 87 % 1020,2 hPa 0,0 l/m² 0,1 km/h (0 Bft) O 0,00 h 0 W/m² 15,7 °C 17,9 °C 0,3 km/h (0 Bft)
11.08.2024 05:00 23,2 °C 17,7 °C 61 % 89 % 1020,8 hPa 0,0 l/m² 0,0 km/h (0 Bft) O 0,00 h 0 W/m² 15,9 °C 17,7 °C 0,0 km/h (0 Bft)
11.08.2024 06:00 23,2 °C 18,0 °C 61 % 90 % 1021,4 hPa 0,0 l/m² 0,0 km/h (0 Bft) O 0,00 h 17 W/m² 16,3 °C 18,0 °C 0,0 km/h (0 Bft)
11.08.2024 07:00 23,2 °C 18,9 °C 61 % 85 % 1021,9 hPa 0,0 l/m² 0,0 km/h (0 Bft) NO 0,27 h 47 W/m² 16,3 °C 18,9 °C 0,0 km/h (0 Bft)
11.08.2024 08:00 23,1 °C 19,9 °C 61 % 79 % 1022,2 hPa 0,0 l/m² 1,3 km/h (1 Bft) NO 1,00 h 127 W/m² 16,1 °C 19,9 °C 2,3 km/h (1 Bft)
11.08.2024 09:00 23,2 °C 20,7 °C 60 % 73 % 1022,4 hPa 0,0 l/m² 5,3 km/h (1 Bft) N-NW 1,00 h 249 W/m² 15,6 °C 20,6 °C 8,6 km/h (2 Bft)
11.08.2024 10:00 23,3 °C 21,7 °C 59 % 70 % 1022,6 hPa 0,0 l/m² 4,3 km/h (1 Bft) W-NW 1,00 h 411 W/m² 16,0 °C 21,6 °C 7,2 km/h (2 Bft)
11.08.2024 11:00 23,4 °C 23,5 °C 59 % 64 % 1022,1 hPa 0,0 l/m² 3,5 km/h (1 Bft) O-SO 1,00 h 760 W/m² 16,2 °C 23,5 °C 6,1 km/h (2 Bft)
11.08.2024 12:00 23,6 °C 25,0 °C 61 % 61 % 1021,7 hPa 0,0 l/m² 2,8 km/h (1 Bft) SO 1,00 h 864 W/m² 17,0 °C 25,0 °C 5,3 km/h (1 Bft)
11.08.2024 13:00 23,7 °C 25,7 °C 62 % 60 % 1021,2 hPa 0,0 l/m² 3,4 km/h (1 Bft) NO 1,00 h 581 W/m² 17,2 °C 25,7 °C 6,1 km/h (2 Bft)
11.08.2024 14:00 23,8 °C 25,7 °C 62 % 60 % 1020,9 hPa 0,0 l/m² 4,2 km/h (1 Bft) NO 1,00 h 527 W/m² 17,4 °C 25,7 °C 7,6 km/h (2 Bft)
11.08.2024 15:00 23,9 °C 26,3 °C 62 % 58 % 1020,8 hPa 0,0 l/m² 4,2 km/h (1 Bft) W-NW 1,00 h 497 W/m² 17,3 °C 26,2 °C 7,8 km/h (2 Bft)
11.08.2024 16:00 24,0 °C 27,1 °C 62 % 55 % 1020,4 hPa 0,0 l/m² 3,1 km/h (1 Bft) N 1,00 h 601 W/m² 17,3 °C 27,0 °C 6,5 km/h (2 Bft)
11.08.2024 17:00 23,9 °C 27,2 °C 62 % 54 % 1020,0 hPa 0,0 l/m² 4,0 km/h (1 Bft) N-NO 1,00 h 466 W/m² 17,1 °C 27,1 °C 7,9 km/h (2 Bft)
11.08.2024 18:00 24,1 °C 26,5 °C 60 % 55 % 1019,6 hPa 0,0 l/m² 5,9 km/h (2 Bft) NO 1,00 h 234 W/m² 16,8 °C 26,4 °C 9,8 km/h (2 Bft)
11.08.2024 19:00 24,0 °C 25,3 °C 59 % 57 % 1019,5 hPa 0,0 l/m² 4,3 km/h (1 Bft) N 0,50 h 52 W/m² 16,1 °C 25,3 °C 6,4 km/h (2 Bft)
11.08.2024 20:00 24,0 °C 23,2 °C 60 % 62 % 1019,5 hPa 0,0 l/m² 1,9 km/h (1 Bft) N-NO 0,00 h 15 W/m² 15,4 °C 23,2 °C 3,8 km/h (1 Bft)
11.08.2024 21:00 24,1 °C 19,9 °C 59 % 75 % 1019,7 hPa 0,0 l/m² 0,4 km/h (0 Bft) N-NO 0,00 h 0 W/m² 15,2 °C 19,9 °C 0,7 km/h (0 Bft)
11.08.2024 22:00 23,9 °C 17,8 °C 57 % 80 % 1019,6 hPa 0,0 l/m² 0,2 km/h (0 Bft) W-SW 0,00 h 0 W/m² 14,2 °C 17,8 °C 0,5 km/h (0 Bft)
11.08.2024 23:00 23,5 °C 16,5 °C 56 % 85 % 1019,5 hPa 0,0 l/m² 0,1 km/h (0 Bft) W-SW 0,00 h 0 W/m² 13,9 °C 16,5 °C 0,2 km/h (0 Bft)
Min-Datum _ 09.08.24 06.08.24 06.08.24 10.08.24 07.08.24 - 11.08.24 - - - 06.08.24 06.08.24 11.08.24
_ Min-Zeit 08:01 06:01 07:00 16:13 18:04 - 23:01 - - - 06:01 06:01 23:01
Minimum _ 22,7 °C 11,9 °C 54 % 41 % 1009,3 hPa - 0,0 km/h (0 Bft) - - - 11,0 °C 11,9 °C 0,0 km/h (0 Bft)
Max-Datum _ 05.08.24 07.08.24 10.08.24 10.08.24 11.08.24 09.08.24 09.08.24 - 07.08.24 11.08.24 07.08.24 07.08.24 10.08.24
_ Max-Zeit 01:08 14:24 10:00 07:44 10:24 21:23 17:06 - 19:12 14:01 19:44 14:23 13:11
Maximum _ 24,5 °C 30,7 °C 64 % 97 % 1022,8 hPa 1,0 l/m² 30,1 km/h
SW (5 Bft)
- 0,10 h 1100 W/m² 20,0 °C 30,6 °C 41,8 km/h
W-SW (6 Bft)
Durchschnitt _ 23,6 °C 20,6 °C 59 % 74 % 1015,7 hPa #1,2 l/m² 3,8 km/h (1 Bft) O #83:11 h 209 W/m² 15,4 °C 20,4 °C 6,1 km/h (2 Bft)
© 2009 Mathias Hoßbach